createdAt,value
2019-03-17T00:01:21.961Z,99521.74
2019-03-17T00:03:51.458Z,99512.19
2019-03-17T00:06:20.953Z,99515.50
2019-03-17T00:08:51.471Z,99512.19
2019-03-17T00:11:20.832Z,99507.58
2019-03-17T00:13:50.275Z,99491.50
2019-03-17T00:16:19.678Z,99491.50
2019-03-17T00:18:55.078Z,99489.59
2019-03-17T00:21:26.117Z,99479.43
2019-03-17T00:23:55.545Z,99485.17
2019-03-17T00:26:24.948Z,99477.05
2019-03-17T00:28:54.396Z,99476.05
2019-03-17T00:31:24.453Z,99476.90
2019-03-17T00:33:54.026Z,99468.09
2019-03-17T00:36:23.447Z,99468.80
2019-03-17T00:38:54.503Z,99467.24
2019-03-17T00:41:23.943Z,99456.66
2019-03-17T00:43:53.364Z,99456.03
2019-03-17T00:46:22.788Z,99461.48
2019-03-17T00:48:52.210Z,99462.34
2019-03-17T00:51:21.647Z,99458.18
2019-03-17T00:53:51.090Z,99453.94
2019-03-17T00:56:20.523Z,99451.25
2019-03-17T00:58:49.936Z,99444.73
2019-03-17T01:01:19.368Z,99442.91
2019-03-17T01:03:51.279Z,99433.78
2019-03-17T01:06:20.861Z,99435.41
2019-03-17T01:08:50.340Z,99426.97
2019-03-17T01:11:19.774Z,99424.03
2019-03-17T01:13:49.186Z,99421.63
2019-03-17T01:16:18.680Z,99420.25
2019-03-17T01:18:48.124Z,99418.37
2019-03-17T01:21:17.564Z,99413.08
2019-03-17T01:23:46.968Z,99409.94
2019-03-17T01:26:16.400Z,99415.69
2019-03-17T01:28:45.853Z,99409.54
2019-03-17T01:31:15.244Z,99406.88
2019-03-17T01:33:44.677Z,99390.22
2019-03-17T01:36:14.156Z,99378.80
2019-03-17T01:38:43.656Z,99392.75
2019-03-17T01:41:13.066Z,99381.86
2019-03-17T01:43:42.509Z,99372.12
2019-03-17T01:46:11.924Z,99378.27
2019-03-17T01:48:41.357Z,99371.19
2019-03-17T01:51:10.762Z,99369.59
2019-03-17T01:53:40.213Z,99359.08
2019-03-17T01:56:10.187Z,99360.14
2019-03-17T01:58:39.639Z,99350.48
2019-03-17T02:01:11.745Z,99343.97
2019-03-17T02:03:40.356Z,99340.80
2019-03-17T02:06:11.929Z,99341.56
2019-03-17T02:08:41.505Z,99332.28
2019-03-17T02:11:10.934Z,99337.33
2019-03-17T02:13:40.356Z,99329.22
2019-03-17T02:16:11.428Z,99327.44
2019-03-17T02:18:40.850Z,99320.22
2019-03-17T02:21:10.325Z,99311.71
2019-03-17T02:23:39.756Z,99313.09
2019-03-17T02:26:09.237Z,99307.02
2019-03-17T02:28:38.730Z,99303.97
2019-03-17T02:31:08.154Z,99300.59
2019-03-17T02:33:40.078Z,99293.78
2019-03-17T02:36:09.506Z,99282.27
2019-03-17T02:38:38.936Z,99277.00
2019-03-17T02:41:08.407Z,99271.30
2019-03-17T02:43:38.303Z,99268.85
2019-03-17T02:46:08.045Z,99276.35
2019-03-17T02:48:38.048Z,99273.22
2019-03-17T02:51:08.008Z,99271.91
2019-03-17T02:53:37.432Z,99271.02
2019-03-17T02:56:06.831Z,99252.00
2019-03-17T02:58:36.330Z,99257.30
2019-03-17T03:01:05.871Z,99254.53
2019-03-17T03:03:37.362Z,99264.26
2019-03-17T03:06:06.833Z,99252.00
2019-03-17T03:08:36.832Z,99253.46
2019-03-17T03:11:06.257Z,99258.76
2019-03-17T03:13:35.666Z,99248.86
2019-03-17T03:16:06.012Z,99241.57
2019-03-17T03:18:35.800Z,99245.16
2019-03-17T03:21:05.291Z,99242.19
2019-03-17T03:23:37.456Z,99245.48
2019-03-17T03:26:11.028Z,99249.77
2019-03-17T03:28:40.434Z,99245.41
2019-03-17T03:31:09.865Z,99252.91
2019-03-17T03:33:39.273Z,99257.58
2019-03-17T03:36:11.319Z,99251.55
2019-03-17T03:38:39.824Z,99243.08
2019-03-17T03:41:10.207Z,99246.25
2019-03-17T03:43:39.674Z,99243.73
2019-03-17T03:46:09.464Z,99247.31
2019-03-17T03:48:38.876Z,99244.02
2019-03-17T03:51:09.436Z,99243.17
2019-03-17T03:53:41.106Z,99244.02
2019-03-17T03:56:10.685Z,99238.44
2019-03-17T03:58:42.236Z,99232.54
2019-03-17T04:01:14.679Z,99233.23
2019-03-17T04:03:44.626Z,99229.85
2019-03-17T04:06:26.244Z,99227.08
2019-03-17T04:08:49.391Z,99221.42
2019-03-17T04:11:18.832Z,99212.05
2019-03-17T04:13:48.225Z,99211.67
2019-03-17T04:16:23.095Z,99206.46
2019-03-17T04:18:52.750Z,99215.86
2019-03-17T04:21:23.840Z,99213.81
2019-03-17T04:23:53.303Z,99206.36
2019-03-17T04:26:22.800Z,99206.52
2019-03-17T04:28:55.285Z,99199.91
2019-03-17T04:31:27.286Z,99189.73
2019-03-17T04:33:59.389Z,99187.95
2019-03-17T04:36:39.540Z,99189.35
2019-03-17T04:39:03.619Z,99186.34
2019-03-17T04:41:38.078Z,99181.12
2019-03-17T04:44:20.299Z,99177.67
2019-03-17T04:46:41.800Z,99176.55
2019-03-17T04:49:11.512Z,99161.66
2019-03-17T04:51:40.923Z,99161.88
2019-03-17T04:54:10.378Z,99166.34
2019-03-17T04:56:39.796Z,99154.52
2019-03-17T04:59:09.223Z,99158.83
2019-03-17T05:01:38.646Z,99166.55
2019-03-17T05:04:08.081Z,99169.25
2019-03-17T05:06:37.831Z,99178.76
2019-03-17T05:09:07.704Z,99178.39
2019-03-17T05:11:37.143Z,99186.83
2019-03-17T05:14:06.623Z,99180.63
2019-03-17T05:16:36.055Z,99182.60
2019-03-17T05:19:05.486Z,99184.39
2019-03-17T05:21:34.931Z,99186.91
2019-03-17T05:24:04.979Z,99180.31
2019-03-17T05:26:35.946Z,99179.99
2019-03-17T05:29:05.856Z,99170.50
2019-03-17T05:31:35.291Z,99173.56
2019-03-17T05:34:04.760Z,99166.96
2019-03-17T05:36:34.201Z,99178.00
2019-03-17T05:39:05.375Z,99167.30
2019-03-17T05:41:34.801Z,99164.16
2019-03-17T05:44:06.957Z,99172.41
2019-03-17T05:46:39.547Z,99166.74
2019-03-17T05:49:08.973Z,99170.03
2019-03-17T05:51:38.383Z,99171.00
2019-03-17T05:54:07.889Z,99172.84
2019-03-17T05:56:37.301Z,99173.47
2019-03-17T05:59:06.733Z,99178.02
2019-03-17T06:01:36.155Z,99175.06
2019-03-17T06:04:06.165Z,99179.77
2019-03-17T06:06:38.669Z,99173.17
2019-03-17T06:09:08.421Z,99183.66
2019-03-17T06:11:37.849Z,99183.66
2019-03-17T06:14:07.858Z,99181.22
2019-03-17T06:16:37.980Z,99178.10
2019-03-17T06:19:07.415Z,99182.33
2019-03-17T06:21:36.853Z,99172.27
2019-03-17T06:24:06.363Z,99172.86
2019-03-17T06:26:35.773Z,99171.87
2019-03-17T06:29:05.223Z,99175.78
2019-03-17T06:31:34.644Z,99184.73
2019-03-17T06:34:04.591Z,99182.44
2019-03-17T06:36:34.137Z,99191.48
2019-03-17T06:39:05.024Z,99178.27
2019-03-17T06:41:34.454Z,99166.58
2019-03-17T06:44:03.945Z,99174.95
2019-03-17T06:46:33.373Z,99179.84
2019-03-17T06:49:02.798Z,99185.06
2019-03-17T06:51:33.867Z,99181.29
2019-03-17T06:54:03.310Z,99192.05
2019-03-17T06:56:32.744Z,99188.98
2019-03-17T06:59:02.159Z,99203.25
2019-03-17T07:01:31.588Z,99211.70
2019-03-17T07:04:00.995Z,99200.19
2019-03-17T07:06:30.445Z,99194.25
2019-03-17T07:09:00.096Z,99197.77
2019-03-17T07:11:29.758Z,99196.91
2019-03-17T07:13:59.198Z,99189.80
2019-03-17T07:16:28.608Z,99189.80
2019-03-17T07:18:58.042Z,99197.64
2019-03-17T07:21:29.073Z,99209.43
2019-03-17T07:23:58.590Z,99209.61
2019-03-17T07:26:30.082Z,99208.13
2019-03-17T07:29:03.428Z,99205.73
2019-03-17T07:31:32.884Z,99201.91
2019-03-17T07:34:02.317Z,99211.50
2019-03-17T07:36:31.764Z,99216.81
2019-03-17T07:39:11.133Z,99218.03
2019-03-17T07:41:33.361Z,99218.03
2019-03-17T07:44:02.801Z,99220.55
2019-03-17T07:46:32.260Z,99222.80
2019-03-17T07:49:01.693Z,99228.81
2019-03-17T07:51:31.119Z,99228.87
2019-03-17T07:54:00.551Z,99217.75
2019-03-17T07:56:29.954Z,99227.20
2019-03-17T07:58:59.407Z,99230.84
2019-03-17T08:01:28.815Z,99235.83
2019-03-17T08:03:58.340Z,99228.86
2019-03-17T08:06:27.758Z,99234.70
2019-03-17T08:08:57.191Z,99231.20
2019-03-17T08:11:26.621Z,99227.11
2019-03-17T08:13:56.030Z,99235.89
2019-03-17T08:16:26.119Z,99239.75
2019-03-17T08:18:55.530Z,99248.66
2019-03-17T08:21:24.957Z,99246.39
2019-03-17T08:23:54.371Z,99236.09
2019-03-17T08:26:23.800Z,99237.37
2019-03-17T08:28:53.203Z,99252.17
2019-03-17T08:31:24.273Z,99253.87
2019-03-17T08:33:56.311Z,99259.15
2019-03-17T08:36:25.749Z,99248.11
2019-03-17T08:38:55.194Z,99260.00
2019-03-17T08:41:24.696Z,99247.16
2019-03-17T08:43:54.734Z,99254.98
2019-03-17T08:46:24.300Z,99267.20
2019-03-17T08:48:55.209Z,99268.20
2019-03-17T08:51:24.694Z,99262.81
2019-03-17T08:53:54.144Z,99280.14
2019-03-17T08:56:23.593Z,99271.80
2019-03-17T08:58:53.081Z,99289.47
2019-03-17T09:01:22.508Z,99294.82
2019-03-17T09:03:52.030Z,99292.30
2019-03-17T09:06:21.535Z,99278.36
2019-03-17T09:08:51.026Z,99294.47
2019-03-17T09:11:20.465Z,99315.67
2019-03-17T09:13:49.912Z,99312.12
2019-03-17T09:16:19.327Z,99363.25
2019-03-17T09:18:48.767Z,99397.92
2019-03-17T09:21:22.794Z,99404.80
2019-03-17T09:23:52.243Z,99406.56
2019-03-17T09:26:21.694Z,99425.00
2019-03-17T09:28:51.136Z,99432.00
2019-03-17T09:31:20.538Z,99440.01
2019-03-17T09:33:50.022Z,99443.38
2019-03-17T09:36:25.018Z,99438.31
2019-03-17T09:38:50.973Z,99443.02
2019-03-17T09:41:20.340Z,99460.10
2019-03-17T09:43:52.866Z,99451.38
2019-03-17T09:46:23.350Z,99466.84
2019-03-17T09:48:52.777Z,99456.29
2019-03-17T09:51:22.178Z,99443.59
2019-03-17T09:53:51.618Z,99445.39
2019-03-17T09:56:21.024Z,99460.00
2019-03-17T09:58:50.452Z,99453.78
2019-03-17T10:01:19.934Z,99455.78
2019-03-17T10:03:51.898Z,99463.22
2019-03-17T10:06:21.310Z,99473.41
2019-03-17T10:09:00.067Z,99482.72
2019-03-17T10:11:26.537Z,99479.28
2019-03-17T10:13:55.949Z,99475.45
2019-03-17T10:16:25.703Z,99491.11
2019-03-17T10:18:55.123Z,99483.53
2019-03-17T10:21:24.542Z,99489.91
2019-03-17T10:23:57.967Z,99502.20
2019-03-17T10:26:29.089Z,99497.09
2019-03-17T10:28:58.998Z,99501.43
2019-03-17T10:31:29.471Z,99497.02
2019-03-17T10:34:02.057Z,99498.56
2019-03-17T10:36:32.633Z,99508.45
2019-03-17T10:39:12.045Z,99510.17
2019-03-17T10:41:34.777Z,99502.45
2019-03-17T10:44:07.468Z,99514.95
2019-03-17T10:46:36.887Z,99518.00
2019-03-17T10:49:06.296Z,99524.78
2019-03-17T10:51:35.804Z,99521.67
2019-03-17T10:54:08.211Z,99529.06
2019-03-17T10:56:38.127Z,99526.52
2019-03-17T10:59:10.448Z,99532.83
2019-03-17T11:01:38.585Z,99538.81
2019-03-17T11:04:10.557Z,99544.61
2019-03-17T11:06:40.000Z,99543.79
2019-03-17T11:09:09.474Z,99555.73
2019-03-17T11:11:38.918Z,99554.44
2019-03-17T11:14:11.041Z,99556.66
2019-03-17T11:16:40.496Z,99558.55
2019-03-17T11:19:09.930Z,99566.05
2019-03-17T11:21:42.576Z,99559.66
2019-03-17T11:24:12.090Z,99580.03
2019-03-17T11:26:41.494Z,99577.11
2019-03-17T11:29:10.927Z,99559.63
2019-03-17T11:31:40.837Z,99562.00
2019-03-17T11:34:12.490Z,99585.26
2019-03-17T11:36:43.884Z,99580.12
2019-03-17T11:39:13.315Z,99583.51
2019-03-17T11:41:42.795Z,99588.69
2019-03-17T11:44:13.466Z,99584.55
2019-03-17T11:46:47.004Z,99581.28
2019-03-17T11:49:16.581Z,99589.68
2019-03-17T11:51:46.326Z,99593.80
2019-03-17T11:54:15.965Z,99589.23
2019-03-17T11:56:45.472Z,99590.20
2019-03-17T11:59:14.970Z,99580.75
2019-03-17T12:01:49.841Z,99593.77
2019-03-17T12:04:19.278Z,99587.39
2019-03-17T12:06:51.619Z,99590.64
2019-03-17T12:09:29.353Z,99576.20
2019-03-17T12:11:55.438Z,99576.84
2019-03-17T12:14:30.511Z,99576.63
2019-03-17T12:17:00.484Z,99581.97
2019-03-17T12:19:32.682Z,99576.69
2019-03-17T12:22:09.113Z,99584.77
2019-03-17T12:24:32.687Z,99581.89
2019-03-17T12:27:02.113Z,99570.83
2019-03-17T12:29:31.520Z,99577.62
2019-03-17T12:32:03.817Z,99582.84
2019-03-17T12:34:35.183Z,99581.92
2019-03-17T12:37:07.530Z,99588.44
2019-03-17T12:39:36.952Z,99592.86
2019-03-17T12:42:06.838Z,99583.09
2019-03-17T12:44:36.262Z,99592.48
2019-03-17T12:47:05.766Z,99594.34
2019-03-17T12:49:38.201Z,99599.77
2019-03-17T12:52:10.067Z,99600.08
2019-03-17T12:54:40.090Z,99601.86
2019-03-17T12:57:09.572Z,99590.78
2019-03-17T12:59:39.585Z,99596.86
2019-03-17T13:02:11.685Z,99594.14
2019-03-17T13:04:41.172Z,99589.99
2019-03-17T13:07:10.667Z,99599.64
2019-03-17T13:09:42.761Z,99607.70
2019-03-17T13:12:12.269Z,99605.24
2019-03-17T13:14:41.689Z,99603.22
2019-03-17T13:17:11.113Z,99617.47
2019-03-17T13:19:40.713Z,99633.86
2019-03-17T13:22:10.121Z,99653.91
2019-03-17T13:24:39.593Z,99660.26
2019-03-17T13:27:09.003Z,99650.69
2019-03-17T13:29:38.445Z,99634.91
2019-03-17T13:32:07.935Z,99652.59
2019-03-17T13:34:37.628Z,99643.34
2019-03-17T13:37:07.124Z,99654.09
2019-03-17T13:39:36.706Z,99664.83
2019-03-17T13:42:06.257Z,99663.47
2019-03-17T13:44:35.691Z,99666.68
2019-03-17T13:47:05.190Z,99671.96
2019-03-17T13:49:34.593Z,99674.98
2019-03-17T13:52:04.100Z,99679.66
2019-03-17T13:54:35.192Z,99678.67
2019-03-17T13:57:04.715Z,99684.47
2019-03-17T13:59:34.369Z,99691.40
2019-03-17T14:02:05.538Z,99685.17
2019-03-17T14:04:36.653Z,99683.50
2019-03-17T14:07:06.152Z,99690.16
2019-03-17T14:09:35.668Z,99686.91
2019-03-17T14:12:05.131Z,99689.03
2019-03-17T14:14:34.662Z,99699.73
2019-03-17T14:17:04.126Z,99709.33
2019-03-17T14:19:33.641Z,99693.15
2019-03-17T14:22:06.066Z,99689.51
2019-03-17T14:24:35.474Z,99697.34
2019-03-17T14:27:05.051Z,99707.58
2019-03-17T14:29:34.543Z,99713.28
2019-03-17T14:32:04.048Z,99722.89
2019-03-17T14:34:33.490Z,99749.75
2019-03-17T14:37:06.081Z,99776.23
2019-03-17T14:39:34.131Z,99775.98
2019-03-17T14:42:03.640Z,99797.84
2019-03-17T14:44:37.612Z,99793.73
2019-03-17T14:47:04.254Z,99794.87
2019-03-17T14:49:33.670Z,99782.42
2019-03-17T14:52:03.091Z,99781.41
2019-03-17T14:54:34.270Z,99786.88
2019-03-17T14:57:03.779Z,99786.16
2019-03-17T14:59:33.270Z,99788.48
2019-03-17T15:02:02.777Z,99778.28
2019-03-17T15:04:32.256Z,99787.75
2019-03-17T15:07:03.389Z,99776.97
2019-03-17T15:09:32.875Z,99778.09
2019-03-17T15:12:02.347Z,99793.51
2019-03-17T15:14:31.740Z,99783.49
2019-03-17T15:17:01.161Z,99772.84
2019-03-17T15:19:30.598Z,99792.32
2019-03-17T15:22:00.081Z,99795.23
2019-03-17T15:24:29.682Z,99799.91
2019-03-17T15:26:59.088Z,99796.25
2019-03-17T15:29:28.526Z,99801.25
2019-03-17T15:31:57.941Z,99813.74
2019-03-17T15:34:27.666Z,99821.09
2019-03-17T15:37:05.001Z,99822.73
2019-03-17T15:39:33.353Z,99826.30
2019-03-17T15:42:02.780Z,99831.52
2019-03-17T15:44:32.211Z,99828.22
2019-03-17T15:47:01.616Z,99823.73
2019-03-17T15:49:31.118Z,99827.47
2019-03-17T15:52:00.600Z,99836.22
2019-03-17T15:54:30.100Z,99841.55
2019-03-17T15:56:59.583Z,99835.97
2019-03-17T15:59:29.046Z,99838.83
2019-03-17T16:02:01.830Z,99846.42
2019-03-17T16:04:35.422Z,99842.39
2019-03-17T16:07:06.324Z,99838.77
2019-03-17T16:09:35.770Z,99846.72
2019-03-17T16:12:10.248Z,99855.59
2019-03-17T16:14:40.534Z,99855.48
2019-03-17T16:17:10.048Z,99859.72
2019-03-17T16:19:41.340Z,99856.28
2019-03-17T16:22:10.970Z,99857.69
2019-03-17T16:24:40.364Z,99863.94
2019-03-17T16:27:09.792Z,99873.69
2019-03-17T16:29:39.209Z,99887.66
2019-03-17T16:32:08.788Z,99884.30
2019-03-17T16:34:38.206Z,99889.08
2019-03-17T16:37:07.648Z,99890.59
2019-03-17T16:39:37.088Z,99901.37
2019-03-17T16:42:06.591Z,99901.87
2019-03-17T16:44:36.270Z,99908.97
2019-03-17T16:47:05.909Z,99905.66
2019-03-17T16:49:35.328Z,99915.84
2019-03-17T16:52:06.301Z,99916.27
2019-03-17T16:54:35.732Z,99921.51
2019-03-17T16:57:05.149Z,99921.73
2019-03-17T16:59:34.577Z,99923.18
2019-03-17T17:02:04.069Z,99923.77
2019-03-17T17:04:33.582Z,99927.04
2019-03-17T17:07:03.018Z,99928.59
2019-03-17T17:09:32.454Z,99935.34
2019-03-17T17:12:01.931Z,99941.92
2019-03-17T17:14:31.369Z,99943.31
2019-03-17T17:17:00.781Z,99930.92
2019-03-17T17:19:31.976Z,99935.82
2019-03-17T17:22:01.401Z,99932.08
2019-03-17T17:24:35.763Z,99935.67
2019-03-17T17:27:08.298Z,99942.94
2019-03-17T17:29:37.697Z,99945.63
2019-03-17T17:32:08.171Z,99955.66
2019-03-17T17:34:37.673Z,99956.53
2019-03-17T17:37:08.778Z,99957.92
2019-03-17T17:39:38.362Z,99962.29
2019-03-17T17:42:09.886Z,99970.03
2019-03-17T17:44:40.221Z,99973.23
2019-03-17T17:47:09.667Z,99972.41
2019-03-17T17:49:40.697Z,99980.72
2019-03-17T17:52:10.171Z,99982.06
2019-03-17T17:54:39.733Z,99983.44
2019-03-17T17:57:09.616Z,99992.09
2019-03-17T17:59:44.810Z,99991.78
2019-03-17T18:02:14.921Z,100002.76
2019-03-17T18:04:44.398Z,100001.12
2019-03-17T18:07:13.961Z,99996.93
2019-03-17T18:09:43.380Z,99995.64
2019-03-17T18:12:20.839Z,100000.26
2019-03-17T18:14:43.926Z,100002.02
2019-03-17T18:17:17.628Z,100006.00
2019-03-17T18:19:47.100Z,100002.67
2019-03-17T18:22:16.540Z,100007.08
2019-03-17T18:24:46.026Z,100010.11
2019-03-17T18:27:18.119Z,100015.41
2019-03-17T18:29:46.768Z,100022.01
2019-03-17T18:32:19.316Z,100022.88
2019-03-17T18:34:50.593Z,100029.44
2019-03-17T18:37:19.875Z,100033.48
2019-03-17T18:39:49.410Z,100030.81
2019-03-17T18:42:18.810Z,100034.27
2019-03-17T18:44:48.325Z,100041.13
2019-03-17T18:47:17.758Z,100037.72
2019-03-17T18:49:48.722Z,100036.55
2019-03-17T18:52:18.160Z,100035.20
2019-03-17T18:54:47.611Z,100036.58
2019-03-17T18:57:21.542Z,100044.83
2019-03-17T18:59:51.296Z,100047.89
2019-03-17T19:02:20.807Z,100053.93
2019-03-17T19:04:53.352Z,100059.58
2019-03-17T19:07:22.794Z,100060.38
2019-03-17T19:09:52.226Z,100070.85
2019-03-17T19:12:21.713Z,100067.00
2019-03-17T19:14:51.127Z,100070.78
2019-03-17T19:17:20.570Z,100073.29
2019-03-17T19:19:51.604Z,100079.77
2019-03-17T19:22:21.052Z,100089.34
2019-03-17T19:24:50.523Z,100091.42
2019-03-17T19:27:20.093Z,100091.50
2019-03-17T19:29:49.533Z,100101.19
2019-03-17T19:32:18.955Z,100107.66
2019-03-17T19:34:49.930Z,100105.18
2019-03-17T19:37:20.902Z,100108.24
2019-03-17T19:39:50.404Z,100100.40
2019-03-17T19:42:19.958Z,100108.67
2019-03-17T19:44:49.553Z,100103.92
2019-03-17T19:47:21.331Z,100113.89
2019-03-17T19:49:50.808Z,100110.11
2019-03-17T19:52:20.227Z,100108.28
2019-03-17T19:54:49.678Z,100120.87
2019-03-17T19:57:19.119Z,100122.63
2019-03-17T19:59:48.559Z,100129.93
2019-03-17T20:02:18.055Z,100124.09
2019-03-17T20:04:47.499Z,100129.70
2019-03-17T20:07:16.911Z,100130.20
2019-03-17T20:09:46.358Z,100134.59
2019-03-17T20:12:15.793Z,100140.17
2019-03-17T20:14:45.228Z,100141.00
2019-03-17T20:17:14.680Z,100146.64
2019-03-17T20:19:48.066Z,100157.06
2019-03-17T20:22:17.502Z,100156.17
2019-03-17T20:24:46.978Z,100156.53
2019-03-17T20:27:17.476Z,100158.36
2019-03-17T20:29:46.898Z,100162.23
2019-03-17T20:32:16.894Z,100161.31
2019-03-17T20:34:46.298Z,100156.63
2019-03-17T20:37:15.742Z,100169.61
2019-03-17T20:39:45.147Z,100165.73
2019-03-17T20:42:14.649Z,100168.78
2019-03-17T20:44:44.058Z,100173.50
2019-03-17T20:47:13.500Z,100183.95
2019-03-17T20:49:42.915Z,100181.82
2019-03-17T20:52:19.752Z,100186.72
2019-03-17T20:54:50.805Z,100183.83
2019-03-17T20:57:20.246Z,100191.22
2019-03-17T20:59:49.667Z,100187.42
2019-03-17T21:02:19.143Z,100188.72
2019-03-17T21:04:48.587Z,100186.56
2019-03-17T21:07:18.009Z,100184.84
2019-03-17T21:09:47.443Z,100191.25
2019-03-17T21:12:16.853Z,100196.39
2019-03-17T21:14:46.336Z,100200.22
2019-03-17T21:17:15.763Z,100198.48
2019-03-17T21:19:45.197Z,100207.61
2019-03-17T21:22:14.610Z,100207.12
2019-03-17T21:24:49.381Z,100204.56
2019-03-17T21:27:18.817Z,100208.88
2019-03-17T21:29:48.220Z,100208.50
2019-03-17T21:32:17.659Z,100214.16
2019-03-17T21:34:49.913Z,100211.20
2019-03-17T21:37:21.926Z,100217.70
2019-03-17T21:39:51.302Z,100217.21
2019-03-17T21:42:20.822Z,100217.70
2019-03-17T21:44:50.319Z,100222.50
2019-03-17T21:47:22.468Z,100228.16
2019-03-17T21:49:51.909Z,100226.47
2019-03-17T21:52:21.338Z,100230.30
2019-03-17T21:54:52.324Z,100222.56
2019-03-17T21:57:24.258Z,100224.28
2019-03-17T21:59:53.679Z,100230.61
2019-03-17T22:02:23.168Z,100237.16
2019-03-17T22:04:52.649Z,100243.69
2019-03-17T22:07:22.081Z,100235.03
2019-03-17T22:09:55.799Z,100245.79
2019-03-17T22:12:26.939Z,100241.05
2019-03-17T22:14:59.061Z,100243.69
2019-03-17T22:17:28.511Z,100244.09
2019-03-17T22:19:57.917Z,100241.94
2019-03-17T22:22:27.423Z,100252.69
2019-03-17T22:24:56.898Z,100253.92
2019-03-17T22:27:26.345Z,100253.95
2019-03-17T22:29:55.794Z,100253.84
2019-03-17T22:32:25.202Z,100255.17
2019-03-17T22:34:59.989Z,100261.61
2019-03-17T22:37:29.433Z,100258.56
2019-03-17T22:39:58.857Z,100248.55
2019-03-17T22:42:28.299Z,100250.28
2019-03-17T22:44:57.715Z,100261.88
2019-03-17T22:47:27.166Z,100255.34
2019-03-17T22:49:56.731Z,100257.07
2019-03-17T22:52:27.713Z,100260.52
2019-03-17T22:55:03.090Z,100257.05
2019-03-17T22:57:32.569Z,100260.12
2019-03-17T23:00:01.996Z,100271.33
2019-03-17T23:02:33.280Z,100278.32
2019-03-17T23:05:02.857Z,100274.09
2019-03-17T23:07:32.296Z,100271.02
2019-03-17T23:10:02.188Z,100272.85
2019-03-17T23:12:33.790Z,100273.39
2019-03-17T23:15:03.960Z,100272.94
2019-03-17T23:17:33.394Z,100268.22
2019-03-17T23:20:02.828Z,100263.63
2019-03-17T23:22:32.303Z,100268.78
2019-03-17T23:25:02.387Z,100281.26
2019-03-17T23:27:37.518Z,100274.47
2019-03-17T23:30:10.411Z,100273.59
2019-03-17T23:32:39.880Z,100274.03
2019-03-17T23:35:09.554Z,100272.84
2019-03-17T23:37:41.033Z,100259.86
2019-03-17T23:40:13.164Z,100276.61
2019-03-17T23:42:42.650Z,100270.61
2019-03-17T23:45:12.969Z,100266.38
2019-03-17T23:47:42.455Z,100268.52
2019-03-17T23:50:18.446Z,100278.06
2019-03-17T23:52:47.858Z,100278.06
2019-03-17T23:55:17.275Z,100280.67
2019-03-17T23:57:46.711Z,100274.31
